Time;durP1;ratioP1;P1;durP2;ratioP2;P2;SDS_P1;SDS_P2;PMS_P1;PMS_P2;Temp;Humidity;BMP_temperature;BMP_pressure;BME280_temperature;BME280_humidity;BME280_pressure;Samples;Min_cycle;Max_cycle;Signal;HPM_P1;HPM_P2
2022/06/24 00:00:06;;;;;;;;;6.33;4.33;;;;;39.78;22.69;100360.38;4901431;28;45533;-79
2022/06/24 00:02:31;;;;;;;;;4.00;4.00;;;;;39.63;23.16;100352.69;4901293;29;45489;-79
2022/06/24 00:05:00;;;;;;;;;3.00;3.00;;;;;39.61;22.80;100349.25;4900887;28;45423;-79
2022/06/24 00:07:25;;;;;;;;;3.67;3.67;;;;;39.59;22.97;100361.56;4915840;28;46112;-79
2022/06/24 00:09:51;;;;;;;;;4.00;4.00;;;;;39.36;23.09;100328.00;4901226;29;45470;-79
2022/06/24 00:12:19;;;;;;;;;3.00;3.00;;;;;39.43;23.05;100356.81;4901248;28;45222;-79
2022/06/24 00:14:55;;;;;;;;;2.33;2.33;;;;;39.36;23.29;100356.59;4901077;29;45505;-79
2022/06/24 00:17:20;;;;;;;;;4.00;3.00;;;;;39.42;23.11;100360.63;4901178;29;45494;-80
2022/06/24 00:19:59;;;;;;;;;3.00;3.00;;;;;39.30;23.83;100360.06;4901207;29;45385;-79
2022/06/24 00:22:27;;;;;;;;;3.00;2.67;;;;;39.28;23.59;100363.03;4901226;29;45388;-79
2022/06/24 00:25:16;;;;;;;;;3.00;3.00;;;;;39.29;23.53;100361.09;4915480;28;47231;-79
2022/06/24 00:27:56;;;;;;;;;3.00;3.00;;;;;39.23;23.23;100353.47;4900989;28;45418;-80
2022/06/24 00:30:22;;;;;;;;;4.00;4.00;;;;;39.06;23.17;100341.38;4901326;29;45411;-79
2022/06/24 00:32:47;;;;;;;;;6.00;4.67;;;;;39.13;23.39;100359.13;4900935;29;45518;-79
2022/06/24 00:35:18;;;;;;;;;3.00;3.00;;;;;39.17;23.30;100349.44;4899147;28;46209;-80
2022/06/24 00:37:45;;;;;;;;;4.00;4.00;;;;;39.06;23.98;100361.69;4900667;29;45471;-79
2022/06/24 00:40:10;;;;;;;;;3.67;3.00;;;;;38.83;24.05;100364.16;4915475;28;45427;-79
2022/06/24 00:42:47;;;;;;;;;3.67;2.33;;;;;38.86;23.50;100366.63;4899701;29;45495;-79
2022/06/24 00:45:41;;;;;;;;;3.00;3.00;;;;;38.94;23.85;100369.41;4900680;29;45363;-79
2022/06/24 00:48:14;;;;;;;;;4.00;4.00;;;;;38.75;23.83;100350.28;4900662;28;45385;-78
2022/06/24 00:50:44;;;;;;;;;4.00;4.00;;;;;38.70;24.24;100347.97;4900667;29;45246;-79
2022/06/24 00:53:10;;;;;;;;;3.67;3.67;;;;;38.73;24.21;100352.31;4914550;28;45354;-79
2022/06/24 00:55:37;;;;;;;;;3.00;3.00;;;;;38.63;23.93;100344.09;4900543;29;45461;-79
2022/06/24 00:58:04;;;;;;;;;4.33;4.33;;;;;38.71;24.11;100357.19;4900496;29;45669;-79
2022/06/24 01:00:33;;;;;;;;;4.00;4.00;;;;;38.84;23.86;100360.34;4915277;28;45483;-79
2022/06/24 01:03:01;;;;;;;;;4.00;4.00;;;;;38.85;23.87;100352.88;4900332;29;45304;-78
2022/06/24 01:05:28;;;;;;;;;4.00;4.00;;;;;38.86;23.74;100357.41;4900252;28;45513;-78
2022/06/24 01:07:54;;;;;;;;;4.00;4.00;;;;;38.68;24.08;100343.63;4914895;28;45446;-79
2022/06/24 01:10:20;;;;;;;;;4.67;4.67;;;;;38.69;23.91;100332.34;4915320;28;45315;-79
2022/06/24 01:12:45;;;;;;;;;4.33;4.33;;;;;38.68;24.03;100343.63;4900646;28;45253;-79
2022/06/24 01:15:11;;;;;;;;;4.00;3.00;;;;;38.75;24.66;100358.59;4900046;28;46190;-79
2022/06/24 01:17:39;;;;;;;;;6.00;5.00;;;;;38.68;23.61;100352.81;4900422;28;45271;-79
2022/06/24 01:20:09;;;;;;;;;3.33;3.33;;;;;38.50;24.01;100339.00;4914630;28;45518;-79
2022/06/24 01:22:35;;;;;;;;;3.33;3.33;;;;;38.72;23.97;100361.66;4900285;28;45383;-79
2022/06/24 01:25:00;;;;;;;;;4.00;3.00;;;;;38.67;24.37;100350.19;4899983;28;46345;-79
2022/06/24 01:27:25;;;;;;;;;4.00;4.00;;;;;38.64;24.06;100351.38;4899105;29;45949;-80
2022/06/24 01:29:51;;;;;;;;;3.00;3.00;;;;;38.60;24.50;100344.41;4914731;28;45386;-79
2022/06/24 01:32:17;;;;;;;;;3.00;3.00;;;;;38.79;24.22;100371.06;4900097;29;45396;-79
2022/06/24 01:34:42;;;;;;;;;4.00;4.00;;;;;38.59;23.75;100339.91;4899561;28;46353;-79
2022/06/24 01:37:08;;;;;;;;;3.00;3.00;;;;;38.61;24.41;100351.72;4900096;28;45352;-79
2022/06/24 01:39:33;;;;;;;;;4.00;4.00;;;;;38.71;24.33;100360.81;4900159;28;45285;-79
2022/06/24 01:41:59;;;;;;;;;4.00;4.00;;;;;38.53;24.41;100355.28;4900033;29;45501;-79
2022/06/24 01:44:26;;;;;;;;;3.33;2.00;;;;;38.51;24.35;100365.69;4914505;28;47639;-79
2022/06/24 01:46:52;;;;;;;;;5.33;3.00;;;;;38.42;24.67;100369.41;4914557;28;45401;-79
2022/06/24 01:49:17;;;;;;;;;3.33;3.33;;;;;38.36;24.97;100375.63;4914513;28;45386;-79
2022/06/24 01:51:46;;;;;;;;;4.00;4.00;;;;;38.34;26.09;100369.34;4898675;29;45454;-79
2022/06/24 01:54:12;;;;;;;;;6.00;4.67;;;;;38.28;26.19;100367.22;4899736;29;46321;-79
2022/06/24 01:56:37;;;;;;;;;6.33;4.00;;;;;38.32;25.81;100372.28;4899746;28;45637;-79
2022/06/24 01:59:03;;;;;;;;;4.00;4.00;;;;;38.41;26.43;100370.44;4899763;29;45387;-79
2022/06/24 02:01:28;;;;;;;;;4.33;4.00;;;;;38.34;25.81;100361.03;4899791;28;45351;-79
2022/06/24 02:03:54;;;;;;;;;5.00;3.67;;;;;38.37;26.49;100372.69;4898219;28;46478;-79
2022/06/24 02:06:20;;;;;;;;;4.67;4.00;;;;;38.34;26.04;100363.81;4899699;28;45547;-79
2022/06/24 02:08:46;;;;;;;;;4.00;4.00;;;;;38.22;25.46;100352.13;4899969;28;45706;-79
2022/06/24 02:13:58;;;;;;;;;3.33;3.33;;;;;38.07;25.75;100349.03;4899492;29;45667;-79
2022/06/24 02:16:24;;;;;;;;;7.00;5.00;;;;;37.90;26.29;100354.41;4899399;28;45426;-79
2022/06/24 02:18:50;;;;;;;;;6.00;4.67;;;;;37.71;25.53;100332.41;4899363;28;45323;-79
2022/06/24 02:21:15;;;;;;;;;5.00;4.00;;;;;37.75;26.50;100348.56;4899512;28;45436;-79
2022/06/24 02:23:42;;;;;;;;;4.33;4.33;;;;;37.73;26.06;100353.34;4899834;29;45584;-79
2022/06/24 02:26:08;;;;;;;;;4.00;4.00;;;;;37.68;26.44;100346.53;4899244;28;45317;-79
2022/06/24 02:28:34;;;;;;;;;6.33;4.33;;;;;37.73;26.43;100358.88;4899431;28;45292;-79
2022/06/24 02:31:00;;;;;;;;;4.33;4.33;;;;;37.64;25.82;100361.72;4899025;28;45653;-79
2022/06/24 02:33:27;;;;;;;;;4.00;4.00;;;;;37.49;26.58;100356.72;4898697;28;45390;-79
2022/06/24 02:35:52;;;;;;;;;4.33;4.33;;;;;37.49;26.07;100356.72;4898940;28;45376;-79
2022/06/24 02:38:17;;;;;;;;;4.33;4.33;;;;;37.71;26.22;100366.50;4899207;28;45346;-79
2022/06/24 02:40:45;;;;;;;;;6.33;5.67;;;;;37.77;26.48;100370.56;4899425;28;45368;-79
2022/06/24 02:43:26;;;;;;;;;3.33;3.33;;;;;37.68;25.95;100379.75;4898775;28;45666;-79
2022/06/24 02:45:54;;;;;;;;;5.00;4.00;;;;;37.62;28.21;100380.41;4898886;28;45402;-79
2022/06/24 02:48:21;;;;;;;;;7.00;5.33;;;;;37.54;27.36;100347.94;4898688;29;45454;-79
2022/06/24 02:50:52;;;;;;;;;6.00;4.67;;;;;37.89;27.11;100346.25;4898985;28;45376;-79
2022/06/24 02:53:19;;;;;;;;;4.33;3.67;;;;;38.10;27.23;100343.16;4898582;28;46478;-79
2022/06/24 02:55:47;;;;;;;;;5.00;5.00;;;;;38.11;27.07;100333.81;4898678;29;45530;-79
2022/06/24 02:58:13;;;;;;;;;4.00;4.00;;;;;37.93;27.30;100322.75;4898694;28;45555;-79
2022/06/24 03:00:41;;;;;;;;;4.33;4.33;;;;;37.99;26.75;100321.25;4913170;28;45501;-80
2022/06/24 03:03:06;;;;;;;;;5.00;5.00;;;;;38.05;26.87;100307.63;4895271;28;45666;-79
2022/06/24 03:05:32;;;;;;;;;4.00;4.00;;;;;37.97;26.64;100301.16;4879801;29;45376;-80
2022/06/24 03:07:57;;;;;;;;;4.67;4.67;;;;;38.07;26.69;100305.59;4880072;29;45449;-79
2022/06/24 03:10:23;;;;;;;;;4.00;4.00;;;;;37.99;27.52;100304.63;4894225;29;45521;-79
2022/06/24 03:12:48;;;;;;;;;5.00;5.00;;;;;37.81;26.96;100279.72;4894115;29;47388;-79
2022/06/24 03:15:13;;;;;;;;;4.00;4.00;;;;;37.98;27.58;100312.09;4879636;29;45401;-79
2022/06/24 03:17:39;;;;;;;;;4.33;4.33;;;;;38.00;27.14;100309.16;4883076;29;45525;-80
2022/06/24 03:20:06;;;;;;;;;6.00;6.00;;;;;38.02;26.94;100307.97;4883137;29;45471;-79
2022/06/24 03:22:32;;;;;;;;;2.67;2.00;;;;;38.10;27.22;100313.56;4881752;29;47126;-79
2022/06/24 03:24:58;;;;;;;;;6.00;6.00;;;;;37.93;26.84;100322.75;4882883;29;45404;-79
2022/06/24 03:27:23;;;;;;;;;4.00;4.00;;;;;37.70;26.97;100303.84;4883028;29;45327;-79
2022/06/24 03:29:48;;;;;;;;;6.00;5.00;;;;;37.68;26.95;100299.50;4882668;29;45428;-79
2022/06/24 03:32:14;;;;;;;;;7.00;5.33;;;;;37.74;27.36;100315.47;4882562;29;45371;-79
2022/06/24 03:34:40;;;;;;;;;5.00;5.00;;;;;37.69;27.53;100306.78;4897030;29;45370;-79
2022/06/24 03:37:05;;;;;;;;;5.00;5.00;;;;;37.47;27.23;100281.31;4882778;29;45496;-79
2022/06/24 03:39:30;;;;;;;;;5.33;5.33;;;;;37.63;27.44;100321.25;4882772;29;45360;-79
2022/06/24 03:41:56;;;;;;;;;5.67;5.00;;;;;37.34;27.04;100280.81;4882600;29;45537;-79
2022/06/24 03:44:21;;;;;;;;;5.00;5.00;;;;;37.58;27.26;100330.00;4882120;29;45488;-79
2022/06/24 03:46:47;;;;;;;;;5.00;5.00;;;;;37.63;27.43;100319.34;4883077;29;45398;-79
2022/06/24 03:49:12;;;;;;;;;4.00;4.00;;;;;37.47;28.10;100292.38;4882414;29;45401;-79
2022/06/24 03:51:37;;;;;;;;;6.00;6.00;;;;;37.64;27.66;100306.38;4897037;29;46757;-79
2022/06/24 03:54:03;;;;;;;;;5.67;5.33;;;;;37.52;27.80;100290.00;4882476;29;45356;-79
2022/06/24 03:56:28;;;;;;;;;6.00;6.00;;;;;37.53;27.43;100307.50;4882375;29;45380;-79
2022/06/24 03:58:54;;;;;;;;;6.67;4.00;;;;;37.49;27.22;100323.53;4882097;29;45428;-79
2022/06/24 04:01:19;;;;;;;;;5.00;5.00;;;;;37.50;27.78;100308.69;4882166;29;45384;-79
2022/06/24 04:03:45;;;;;;;;;6.67;6.67;;;;;37.55;27.63;100311.84;4890165;29;46106;-79
2022/06/24 04:06:10;;;;;;;;;5.33;5.33;;;;;37.49;27.59;100295.84;4901195;28;45354;-79
2022/06/24 04:08:35;;;;;;;;;5.00;5.00;;;;;37.44;27.48;100303.75;4901083;28;45315;-79
2022/06/24 04:11:15;;;;;;;;;7.00;6.33;;;;;37.65;27.93;100325.63;4901011;28;46006;-79
2022/06/24 04:13:41;;;;;;;;;5.33;5.33;;;;;37.71;28.36;100318.56;4900695;28;45518;-80
2022/06/24 04:16:07;;;;;;;;;6.33;6.33;;;;;37.72;27.49;100314.75;4900797;28;45499;-79
2022/06/24 04:18:33;;;;;;;;;4.33;4.33;;;;;37.79;27.63;100332.50;4900805;28;45559;-79
2022/06/24 04:20:59;;;;;;;;;7.00;6.00;;;;;37.71;27.43;100316.66;4900584;29;46420;-80
2022/06/24 04:23:24;;;;;;;;;8.00;8.00;;;;;37.79;28.40;100320.56;4900725;28;45331;-74
2022/06/24 04:25:50;;;;;;;;;8.00;7.00;;;;;37.75;27.85;100328.31;4900731;29;45435;-71
2022/06/24 04:28:16;;;;;;;;;6.33;6.33;;;;;37.74;27.20;100321.03;4898429;28;45383;-71
2022/06/24 04:30:42;;;;;;;;;8.00;8.00;;;;;37.80;27.47;100328.72;4900612;28;45347;-71
2022/06/24 04:33:08;;;;;;;;;6.00;6.00;;;;;37.91;27.26;100336.78;4900603;28;45362;-71
2022/06/24 04:35:33;;;;;;;;;7.00;6.00;;;;;37.84;27.81;100324.59;4900367;28;45379;-71
2022/06/24 04:37:59;;;;;;;;;7.33;6.00;;;;;37.57;27.08;100271.03;4900698;28;45377;-71
2022/06/24 04:40:24;;;;;;;;;6.00;6.00;;;;;37.93;26.90;100318.13;4900197;28;45360;-71
2022/06/24 04:42:49;;;;;;;;;7.67;5.67;;;;;38.00;26.71;100317.47;4900330;28;45367;-71
2022/06/24 04:45:15;;;;;;;;;8.33;6.00;;;;;38.10;26.56;100326.53;4899583;29;45407;-71
2022/06/24 04:47:41;;;;;;;;;7.00;7.00;;;;;38.04;27.27;100324.41;4881619;29;45590;-71
2022/06/24 04:50:07;;;;;;;;;7.00;7.00;;;;;38.15;27.41;100317.75;4881498;29;46445;-71
2022/06/24 04:52:34;;;;;;;;;7.00;6.00;;;;;38.08;27.21;100317.53;4894267;29;45439;-72
2022/06/24 04:55:00;;;;;;;;;6.00;6.00;;;;;38.25;26.77;100332.41;4884324;29;45503;-72
2022/06/24 04:57:25;;;;;;;;;8.00;6.67;;;;;38.17;27.38;100319.31;4898146;29;45537;-72
2022/06/24 04:59:50;;;;;;;;;7.00;7.00;;;;;38.31;26.65;100325.34;4899884;28;46463;-72
2022/06/24 05:02:16;;;;;;;;;6.33;6.33;;;;;38.23;27.08;100313.19;4899044;29;48099;-71
2022/06/24 05:04:41;;;;;;;;;6.00;6.00;;;;;38.25;26.41;100316.63;4900070;28;45507;-72
2022/06/24 05:07:07;;;;;;;;;5.00;5.00;;;;;38.22;26.97;100316.97;4899836;29;45597;-71
2022/06/24 05:09:32;;;;;;;;;6.67;6.67;;;;;38.07;26.87;100316.66;4899012;29;46286;-71
2022/06/24 05:11:58;;;;;;;;;6.00;6.00;;;;;38.27;26.96;100330.31;4899661;29;45449;-71
2022/06/24 05:14:24;;;;;;;;;7.00;5.67;;;;;38.08;26.87;100312.84;4914637;28;45386;-71
2022/06/24 05:16:49;;;;;;;;;6.33;6.33;;;;;38.17;26.38;100322.09;4898554;29;45424;-71
2022/06/24 05:19:15;;;;;;;;;7.67;6.33;;;;;38.20;26.54;100327.31;4897814;29;46022;-71
2022/06/24 05:21:40;;;;;;;;;6.00;6.00;;;;;38.09;27.26;100327.59;4912618;28;45851;-71
2022/06/24 05:24:06;;;;;;;;;6.67;6.67;;;;;38.15;26.52;100306.69;4898003;28;45547;-71
2022/06/24 05:26:31;;;;;;;;;4.67;4.67;;;;;38.08;26.45;100306.44;4897774;29;45409;-71
2022/06/24 05:28:57;;;;;;;;;7.33;5.33;;;;;38.01;27.14;100308.13;4898233;28;45490;-71
2022/06/24 05:31:22;;;;;;;;;7.00;6.00;;;;;38.07;26.48;100326.84;4898583;29;45363;-71
2022/06/24 05:33:48;;;;;;;;;6.33;6.33;;;;;38.05;26.72;100315.94;4899520;29;45999;-71
2022/06/24 05:36:13;;;;;;;;;7.67;6.33;;;;;38.08;26.97;100336.91;4899398;29;45558;-71
2022/06/24 05:38:38;;;;;;;;;6.00;6.00;;;;;38.15;27.05;100334.38;4899102;29;45504;-71
2022/06/24 05:41:04;;;;;;;;;6.00;6.00;;;;;38.12;26.45;100316.19;4899305;28;45481;-71
2022/06/24 05:43:30;;;;;;;;;6.33;5.33;;;;;38.15;26.73;100323.31;4899494;29;45562;-71
2022/06/24 05:45:55;;;;;;;;;5.00;5.00;;;;;38.03;26.30;100319.91;4899634;28;45432;-71
2022/06/24 05:48:20;;;;;;;;;6.00;6.00;;;;;38.07;26.49;100327.75;4899076;28;50231;-71
2022/06/24 05:50:46;;;;;;;;;6.00;6.00;;;;;38.29;27.02;100338.50;4899655;29;45332;-71
2022/06/24 05:56:00;;;;;;;;;9.00;7.00;;;;;38.12;26.78;100335.56;4899279;29;45362;-71
2022/06/24 05:58:27;;;;;;;;;6.33;6.00;;;;;38.09;26.14;100335.91;4898824;28;45495;-71
2022/06/24 06:00:54;;;;;;;;;7.00;6.00;;;;;38.24;26.10;100331.53;4899297;29;45554;-71
2022/06/24 06:03:23;;;;;;;;;8.00;8.00;;;;;38.28;26.00;100325.69;4898838;28;45498;-71
2022/06/24 06:05:49;;;;;;;;;6.67;6.67;;;;;38.29;25.97;100324.66;4898869;28;45375;-71
2022/06/24 06:08:15;;;;;;;;;7.00;7.00;;;;;38.38;26.25;100323.66;4898813;28;46059;-71
2022/06/24 06:10:40;;;;;;;;;8.00;7.00;;;;;38.20;26.68;100330.09;4898802;28;45355;-72
2022/06/24 06:13:06;;;;;;;;;8.00;8.00;;;;;37.99;26.62;100337.88;4899117;29;45631;-77
2022/06/24 06:15:31;;;;;;;;;8.00;7.33;;;;;37.92;26.17;100340.44;4900743;28;45397;-77
2022/06/24 06:17:59;;;;;;;;;7.00;7.00;;;;;37.84;26.49;100354.19;4879923;29;46303;-80
2022/06/24 06:20:25;;;;;;;;;10.00;7.00;;;;;37.95;26.52;100362.25;4879573;29;45462;-79
2022/06/24 06:22:51;;;;;;;;;7.33;6.00;;;;;37.86;26.08;100353.00;4880051;29;45486;-76
2022/06/24 06:25:17;;;;;;;;;7.67;7.67;;;;;37.89;26.61;100346.25;4883779;29;45500;-77
2022/06/24 06:27:42;;;;;;;;;8.00;8.00;;;;;38.00;26.13;100351.56;4891829;29;46292;-77
2022/06/24 06:30:08;;;;;;;;;8.00;7.67;;;;;37.93;25.71;100337.50;4904243;28;45618;-76
2022/06/24 06:32:34;;;;;;;;;6.33;6.00;;;;;37.97;25.68;100364.88;4882065;29;45474;-78
2022/06/24 06:34:59;;;;;;;;;7.67;7.67;;;;;37.90;26.42;100354.41;4898485;28;45458;-76
2022/06/24 06:37:24;;;;;;;;;5.67;5.67;;;;;37.88;26.03;100327.94;4898302;29;49448;-75
2022/06/24 06:39:49;;;;;;;;;7.00;7.00;;;;;37.82;25.89;100362.66;4895101;28;45466;-77
2022/06/24 06:42:15;;;;;;;;;5.33;4.33;;;;;37.79;25.71;100379.56;4894658;28;45428;-75
2022/06/24 06:44:40;;;;;;;;;6.33;6.33;;;;;37.68;25.87;100375.13;4898129;28;45509;-76
2022/06/24 06:47:06;;;;;;;;;8.00;6.00;;;;;37.92;26.29;100380.06;4897627;28;55799;-76
2022/06/24 06:49:32;;;;;;;;;5.00;5.00;;;;;38.03;26.18;100391.91;4898614;28;45461;-76
2022/06/24 06:52:01;;;;;;;;;6.00;6.00;;;;;37.93;25.94;100376.25;4903260;29;45446;-76
2022/06/24 06:54:26;;;;;;;;;4.00;4.00;;;;;37.94;25.32;100377.13;4909044;28;45579;-76
2022/06/24 06:56:51;;;;;;;;;5.00;5.00;;;;;37.79;25.98;100367.63;4913716;28;45330;-76
2022/06/24 06:59:17;;;;;;;;;7.00;5.33;;;;;37.96;25.84;100368.66;4914113;28;52359;-75
2022/06/24 07:01:42;;;;;;;;;6.00;4.67;;;;;38.06;25.65;100383.28;4916416;28;45457;-76
2022/06/24 07:04:07;;;;;;;;;4.67;4.67;;;;;37.86;25.76;100372.41;4911089;28;45458;-80
2022/06/24 07:06:33;;;;;;;;;4.33;4.33;;;;;37.70;25.87;100361.13;4911744;28;45511;-76
2022/06/24 07:08:58;;;;;;;;;7.00;7.00;;;;;37.82;26.21;100379.28;4912226;28;45426;-76
2022/06/24 07:11:23;;;;;;;;;5.33;4.00;;;;;37.85;25.65;100378.94;4912789;28;45315;-76
2022/06/24 07:13:49;;;;;;;;;7.00;7.00;;;;;38.08;26.29;100384.88;4913439;28;45878;-76
2022/06/24 07:16:14;;;;;;;;;5.00;5.00;;;;;38.11;25.10;100372.59;4928005;28;51665;-76
2022/06/24 07:18:39;;;;;;;;;4.00;4.00;;;;;37.81;26.00;100360.91;4912378;28;45320;-77
2022/06/24 07:21:05;;;;;;;;;6.67;6.00;;;;;37.90;25.49;100361.84;4915226;28;45485;-76
2022/06/24 07:23:30;;;;;;;;;5.33;5.33;;;;;38.13;25.54;100365.00;4913171;28;45645;-76
2022/06/24 07:25:57;;;;;;;;;6.67;6.67;;;;;38.21;25.56;100372.50;4913945;28;46586;-76
2022/06/24 07:28:24;;;;;;;;;5.67;5.67;;;;;38.16;25.27;100367.47;4911564;28;45522;-77
2022/06/24 07:30:50;;;;;;;;;5.00;4.67;;;;;38.11;25.64;100372.59;4911454;28;45382;-75
2022/06/24 07:33:15;;;;;;;;;7.00;6.00;;;;;38.15;25.80;100357.41;4898830;29;46330;-76
2022/06/24 07:35:40;;;;;;;;;8.33;7.00;;;;;38.25;25.17;100362.88;4898380;28;45449;-76
2022/06/24 07:38:05;;;;;;;;;4.00;4.00;;;;;38.29;24.94;100374.53;4893620;28;45314;-73
2022/06/24 07:40:31;;;;;;;;;3.67;3.00;;;;;38.32;25.12;100365.88;4890865;29;51561;-75
2022/06/24 07:42:56;;;;;;;;;4.00;4.00;;;;;38.40;25.02;100360.41;4893090;28;45461;-75
2022/06/24 07:45:22;;;;;;;;;4.00;4.00;;;;;38.63;25.41;100369.03;4895344;29;45337;-76
2022/06/24 07:47:47;;;;;;;;;5.00;5.00;;;;;38.64;25.10;100345.84;4898830;28;45237;-76
2022/06/24 07:50:13;;;;;;;;;5.00;5.00;;;;;38.50;25.15;100347.31;4895598;28;45450;-76
2022/06/24 07:52:38;;;;;;;;;4.00;4.00;;;;;38.58;24.83;100358.44;4905974;28;45518;-77
2022/06/24 07:57:47;;;;;;;;;5.00;5.00;;;;;38.44;24.71;100346.06;4893533;29;45492;-76
2022/06/24 08:00:13;;;;;;;;;5.67;4.00;;;;;38.49;24.68;100353.00;4892211;29;45454;-75
2022/06/24 08:02:39;;;;;;;;;5.00;5.00;;;;;38.56;24.82;100359.63;4889955;29;45261;-75
2022/06/24 08:05:04;;;;;;;;;5.33;4.00;;;;;38.55;24.48;100344.91;4895963;29;45473;-75
2022/06/24 08:07:30;;;;;;;;;4.00;4.00;;;;;38.26;24.39;100337.78;4894790;28;45286;-76
2022/06/24 08:09:55;;;;;;;;;3.67;3.67;;;;;38.36;24.54;100350.69;4887958;28;45439;-75
2022/06/24 08:12:21;;;;;;;;;6.00;4.33;;;;;38.11;24.98;100342.13;4909075;28;45518;-76
2022/06/24 08:14:46;;;;;;;;;5.00;5.00;;;;;38.06;24.77;100369.44;4896669;29;45518;-76
2022/06/24 08:17:11;;;;;;;;;2.33;1.00;;;;;38.24;25.21;100339.84;4897023;29;45802;-76
2022/06/24 08:19:37;;;;;;;;;3.33;3.33;;;;;38.46;24.07;100368.06;4895982;29;45500;-75
2022/06/24 08:22:02;;;;;;;;;6.00;5.00;;;;;38.35;24.10;100362.78;4899681;28;45316;-75
2022/06/24 08:24:27;;;;;;;;;5.33;5.33;;;;;38.37;23.91;100363.47;4895170;29;45434;-75
2022/06/24 08:26:53;;;;;;;;;6.00;6.00;;;;;38.37;24.15;100360.69;4894390;29;45499;-75
2022/06/24 08:29:18;;;;;;;;;7.00;6.00;;;;;38.37;23.71;100338.53;4888981;28;45407;-84
2022/06/24 08:31:44;;;;;;;;;5.00;5.00;;;;;38.53;24.52;100338.66;4892573;29;45550;-72
2022/06/24 08:34:10;;;;;;;;;4.67;4.67;;;;;38.77;23.38;100345.41;4889687;28;46181;-76
2022/06/24 08:36:36;;;;;;;;;6.33;5.00;;;;;38.75;23.48;100353.03;4899207;28;45504;-77
2022/06/24 08:39:01;;;;;;;;;5.00;5.00;;;;;38.61;23.62;100357.25;4911202;28;45501;-79
2022/06/24 08:41:27;;;;;;;;;6.00;4.33;;;;;38.55;23.44;100344.03;4912746;28;45580;-79
2022/06/24 08:43:55;;;;;;;;;6.33;5.00;;;;;38.44;23.51;100345.19;4897725;29;46023;-76
2022/06/24 08:46:21;;;;;;;;;4.00;4.00;;;;;38.62;23.83;100342.34;4895481;28;45447;-77
2022/06/24 08:48:48;;;;;;;;;5.67;5.67;;;;;38.76;23.28;100351.97;4906283;28;45323;-76
2022/06/24 08:51:14;;;;;;;;;5.00;5.00;;;;;38.59;23.46;100345.44;4898077;28;45610;-76
2022/06/24 08:53:39;;;;;;;;;5.67;5.00;;;;;38.37;22.90;100316.38;4913765;28;47000;-77
2022/06/24 08:56:06;;;;;;;;;5.33;5.33;;;;;38.67;23.15;100339.94;4908031;28;45591;-76
2022/06/24 08:58:32;;;;;;;;;2.00;2.00;;;;;38.33;23.16;100334.34;4905822;28;45380;-78
2022/06/24 09:00:57;;;;;;;;;5.00;5.00;;;;;37.89;23.61;100301.94;4898845;28;45597;-78
2022/06/24 09:03:23;;;;;;;;;4.00;4.00;;;;;38.19;22.84;100310.88;4896474;29;45349;-76
2022/06/24 09:05:48;;;;;;;;;4.00;4.00;;;;;38.37;23.24;100317.25;4893867;28;45472;-76
2022/06/24 09:08:15;;;;;;;;;4.00;4.00;;;;;38.48;23.24;100320.78;4893781;28;45363;-77
2022/06/24 09:13:29;;;;;;;;;3.67;3.67;;;;;38.41;22.82;100313.13;4894413;29;45813;-76
2022/06/24 09:15:55;;;;;;;;;3.00;3.00;;;;;38.56;23.29;100318.91;4909249;28;45527;-76
2022/06/24 09:18:24;;;;;;;;;3.00;3.00;;;;;38.63;23.39;100308.03;4891768;29;45480;-78
2022/06/24 09:20:56;;;;;;;;;2.33;2.00;;;;;38.56;22.17;100318.06;4892563;28;45335;-76
2022/06/24 09:23:22;;;;;;;;;2.00;2.00;;;;;38.54;22.64;100309.03;4894505;29;46153;-79
2022/06/24 09:25:49;;;;;;;;;3.00;3.00;;;;;38.42;22.74;100300.13;4893994;29;45361;-76
2022/06/24 09:28:29;;;;;;;;;2.33;2.33;;;;;38.29;23.03;100306.13;4889994;28;45431;-78
2022/06/24 09:31:03;;;;;;;;;3.00;3.00;;;;;38.21;23.19;100306.91;4884659;29;45447;-78
2022/06/24 09:33:38;;;;;;;;;1.00;1.00;;;;;38.26;23.03;100299.00;4888960;28;45526;-77
2022/06/24 09:36:06;;;;;;;;;2.67;2.67;;;;;38.18;22.79;100279.50;4887625;28;45455;-78
2022/06/24 09:38:32;;;;;;;;;4.00;4.00;;;;;38.60;22.48;100287.06;4892323;29;45511;-72
2022/06/24 09:41:04;;;;;;;;;2.33;2.33;;;;;39.00;22.36;100290.22;4896586;28;45608;-76
2022/06/24 09:43:31;;;;;;;;;3.00;3.00;;;;;39.00;22.08;100289.34;4884416;29;47120;-78
2022/06/24 09:45:57;;;;;;;;;5.67;3.00;;;;;38.86;21.83;100252.91;4888535;28;45635;-72
2022/06/24 09:48:28;;;;;;;;;2.00;2.00;;;;;38.97;22.25;100256.41;4895332;28;45371;-80
2022/06/24 09:50:55;;;;;;;;;2.00;2.00;;;;;39.13;21.69;100278.66;4885059;28;45586;-77
2022/06/24 09:53:22;;;;;;;;;3.00;3.00;;;;;39.09;21.94;100277.25;4892716;28;46173;-77
2022/06/24 09:55:47;;;;;;;;;1.00;1.00;;;;;38.99;21.59;100276.50;4893184;29;45542;-77
2022/06/24 09:58:13;;;;;;;;;3.00;3.00;;;;;38.98;22.14;100275.66;4894900;28;45308;-78
2022/06/24 10:00:40;;;;;;;;;2.00;2.00;;;;;38.90;21.65;100279.25;4891489;28;45535;-77
2022/06/24 10:03:10;;;;;;;;;2.00;2.00;;;;;39.06;21.16;100289.56;4889863;29;45460;-71
2022/06/24 10:05:47;;;;;;;;;1.67;1.67;;;;;39.08;21.72;100272.75;4890121;28;45466;-77
2022/06/24 10:08:23;;;;;;;;;1.67;1.67;;;;;38.79;21.63;100265.69;4891265;29;45463;-78
2022/06/24 10:10:48;;;;;;;;;4.00;1.33;;;;;38.94;21.50;100279.81;4892509;29;45527;-78
2022/06/24 10:13:29;;;;;;;;;2.67;2.67;;;;;38.86;22.08;100277.00;4888315;29;46087;-77
2022/06/24 10:15:57;;;;;;;;;2.00;2.00;;;;;38.89;21.26;100255.34;4889079;29;45447;-77
2022/06/24 10:18:27;;;;;;;;;1.33;1.33;;;;;38.84;21.09;100254.13;4893580;29;45459;-77
2022/06/24 10:20:58;;;;;;;;;2.00;2.00;;;;;38.68;21.17;100241.03;4892844;29;45430;-79
2022/06/24 10:23:50;;;;;;;;;1.67;1.67;;;;;38.55;21.88;100242.38;4892968;28;46139;-79
2022/06/24 10:26:25;;;;;;;;;2.00;2.00;;;;;38.95;21.38;100273.22;4893972;29;45886;-78
2022/06/24 10:28:59;;;;;;;;;2.00;1.67;;;;;39.11;21.57;100264.97;4905223;28;45517;-77
2022/06/24 10:34:20;;;;;;;;;2.25;1.00;;;;;38.72;22.06;100275.72;4884808;29;46067;-79
2022/06/24 10:36:47;;;;;;;;;2.00;2.00;;;;;38.61;21.90;100257.47;4894669;28;45365;-77
2022/06/24 10:39:18;;;;;;;;;2.00;2.00;;;;;38.83;21.84;100269.88;4894419;28;45450;-70
2022/06/24 10:41:46;;;;;;;;;2.00;2.00;;;;;38.86;22.11;100271.44;4895622;29;45426;-77
2022/06/24 10:44:22;;;;;;;;;2.00;2.00;;;;;39.00;21.55;100275.47;4898367;28;45477;-77
2022/06/24 10:47:27;;;;;;;;;4.67;4.67;;;;;38.94;21.75;100266.78;4896371;28;45337;-78
2022/06/24 10:52:55;;;;;;;;;55.50;45.00;;;;;39.20;22.10;100268.66;4895855;29;45451;-77
2022/06/24 10:55:21;;;;;;;;;72.25;54.25;;;;;39.33;22.20;100267.28;4887902;29;47203;-74
2022/06/24 10:57:52;;;;;;;;;22.67;21.33;;;;;39.44;21.63;100265.03;4896926;28;45398;-74
2022/06/24 11:00:22;;;;;;;;;14.00;12.67;;;;;39.53;21.24;100252.03;4896507;29;45502;-82
2022/06/24 11:02:57;;;;;;;;;18.00;12.00;;;;;39.43;21.19;100252.19;4898203;28;45515;-77
2022/06/24 11:05:29;;;;;;;;;6.33;6.33;;;;;39.22;20.97;100249.91;4898403;28;46064;-73
2022/06/24 11:07:55;;;;;;;;;6.33;6.33;;;;;39.34;21.53;100241.25;4897621;29;45542;-75
2022/06/24 11:10:22;;;;;;;;;5.67;5.00;;;;;39.57;21.28;100249.78;4897383;28;45580;-73
2022/06/24 11:12:53;;;;;;;;;4.00;3.00;;;;;39.62;20.70;100247.38;4898265;28;45604;-76
2022/06/24 11:15:31;;;;;;;;;2.00;2.00;;;;;39.06;20.78;100252.59;4895884;28;45549;-77
2022/06/24 11:17:56;;;;;;;;;2.00;1.67;;;;;38.94;21.35;100232.66;4895914;29;63269;-78
2022/06/24 11:20:22;;;;;;;;;1.00;1.00;;;;;38.60;21.34;100241.84;4896812;29;45468;-74
2022/06/24 11:22:48;;;;;;;;;2.00;2.00;;;;;38.71;21.62;100240.72;4894157;28;45597;-74
2022/06/24 11:25:15;;;;;;;;;3.33;2.00;;;;;38.77;21.27;100237.28;4879115;29;45550;-74
2022/06/24 11:27:40;;;;;;;;;1.33;1.33;;;;;38.83;21.27;100252.38;4887826;29;45626;-74
2022/06/24 11:30:08;;;;;;;;;0.00;0.00;;;;;38.55;21.65;100253.44;4897222;29;45567;-74
2022/06/24 11:32:51;;;;;;;;;3.67;3.00;;;;;38.80;21.98;100259.13;4909475;28;45481;-72
2022/06/24 11:35:18;;;;;;;;;2.00;2.00;;;;;38.83;21.70;100260.69;4893634;29;45627;-74
2022/06/24 11:37:44;;;;;;;;;2.00;2.00;;;;;38.84;21.67;100252.22;4900555;28;45416;-74
2022/06/24 11:40:10;;;;;;;;;1.33;1.33;;;;;38.87;21.44;100257.41;4901029;28;45454;-73